Saint Vincent, MN

11:06 AM CDT on July 24, 2014 (GMT -0500)
Hallock Municipal (KHCO) Elev 820 ft | 48.75 °N, 96.94 °W | Change Station

Current weather conditions updated 13 minutes ago

Clear
Clear
72 °F
Feels Like 72 °F
N
7
Wind Variable Wind from South

Today is forecast to be Warmer than yesterday. Rain developing late tonight.

Today
High -- | Low -- °F
--% Chance of Precip.
Yesterday
High -- | Low -- °F
Precip. -- in
5:51 AM 9:18 PM
Waning Crescent, 5% visible
Pressure 30.07 in
Visibility 10.0 miles
Clouds Scattered Clouds 6000 ft
Dew Point 61 °F
Humidity 69%
Rainfall 0.00 in
Snow Depth Not available.
UV 5 out of 12
Pollen 7.40 out of 12
Air Quality Not available.
Flu Activity Not available.
METAR KHCO 241553Z AUTO 18006KT 10SM SCT060 22/16 A3007 RMK AO2

More Conditions Fewer Conditions

Pressure 30.07 in
Visibility 10.0 miles
Clouds Scattered Clouds 6000 ft
Dew Point 61 °F
Humidity 69%
Rainfall 0.00 in
Snow Depth Not available.
UV 5 out of 12
Pollen 7.40 out of 12
Air Quality Not available.
Flu Activity Not available.
METAR KHCO 241553Z AUTO 18006KT 10SM SCT060 22/16 A3007 RMK AO2

More Conditions Fewer Conditions

10-Day Weather Forecast

Almanac

Astronomy

Jul. 24, 2014 Rise Set
Actual Time 5:51 AM CDT 9:18 PM CDT
Civil Twilight 5:12 AM CDT 9:56 PM CDT
Nautical Twilight 4:20 AM CDT 10:48 PM CDT
Astronomical Twilight 3:10 AM CDT 11:57 PM CDT
Moon 4:02 AM CDT 7:31 PM CDT
Length of Visible Light 16h 44m
Length of Day
15h 26m
Tomorrow will be 2m 30s shorter.
Waning Crescent, 5% of the Moon is Illuminated
Today
Waning Crescent
Jul 26
New
Aug 3
First Quarter
Aug 10
Full
Aug 17
Last Quarter

Today's Extremes

State Highs State Lows

Community

WunderPhotos

Upload Photos

1,737,055 photos uploaded!

Nearby

Snow Depth

Station Depth Elevation
No new snow has been reported.

Earthquake Activity

City Distance Mag. Time & Date
No recent earthquake activity has been reported nearby.
Minimum magnitude displayed is 2.5.

Coastal Water Temperatures

Place Temperature
No Stations Reporting

Nearby Weather Stations

Station Location Temp. Dew Point Humidity Wind Precip. Elev Updated Type
St Jean Baptiste MB, Saint Jean Baptiste 68.9 °F 60 °F 74% SSE  at  2.2 mph - / hr 771 ft 11:03 AM CDT Normal

Show More Stations Show Fewer Stations